Select Airport:
Chesapeake Regional Airport
Last updated: 21 minutes ago
Flight conditions: VFR
Visibility: 10.0 statute miles
Sky Conditions:
   Scattered clouds at 1000 feet
   Broken clouds at 4200 feet
   Overcast at 5000 feet
Weather conditions: rain
Wind From: 10°
Wind speed: 5 knots (5.75 mph)
Temperature: 12.0°C (53.6°F)
Dew Point: 11.0°C (51.8°F)
Altimiter setting: 30.01 in-hg
WX phone: 1-757-204-4290
WX freq: 123.675 MHz
Runway 5
   Crosswind component: 3.21 knots (3.7 mph)
   Headwind component: 3.83 knots (4.4 mph)
KCPK 230935Z AUTO 01005KT 10SM RA SCT010 BKN042 OVC050 12/11 A3001 RMK AO2 P0002 T01200110
FOR REFERENCE USE ONLY, DATA MAY NOT BE CURRENT.
ALWAYS CHECK FOR UP TO DATE INFORMATION.